Time;durP1;ratioP1;P1;durP2;ratioP2;P2;SDS_P1;SDS_P2;PMS_P1;PMS_P2;Temp;Humidity;BMP_temperature;BMP_pressure;BME280_temperature;BME280_humidity;BME280_pressure;Samples;Min_cycle;Max_cycle;Signal;HPM_P1;HPM_P2
2023/04/08 00:01:08;;;;;;;2.30;2.20;;;;;;;6.03;66.23;97695.22;5041674;28;20416;-73
2023/04/08 00:03:35;;;;;;;1.63;1.45;;;;;;;6.07;66.13;97700.06;5050180;28;20052;-73
2023/04/08 00:06:03;;;;;;;1.45;1.35;;;;;;;6.11;66.05;97695.28;5043177;28;20064;-73
2023/04/08 00:08:31;;;;;;;1.73;1.55;;;;;;;6.14;65.54;97695.75;5043313;28;20053;-74
2023/04/08 00:10:59;;;;;;;1.85;1.45;;;;;;;6.18;65.58;97698.91;5047312;28;20046;-73
2023/04/08 00:13:26;;;;;;;1.30;1.20;;;;;;;6.17;66.14;97691.94;5042426;28;20059;-73
2023/04/08 00:15:55;;;;;;;1.35;1.13;;;;;;;6.05;66.61;97687.97;5047869;28;20099;-73
2023/04/08 00:18:23;;;;;;;1.83;1.40;;;;;;;6.09;66.52;97684.00;5038431;28;20046;-73
2023/04/08 00:20:50;;;;;;;1.40;1.30;;;;;;;6.01;67.83;97684.81;5049405;28;20047;-73
2023/04/08 00:23:20;;;;;;;1.25;1.15;;;;;;;5.88;68.13;97689.75;5040293;28;20092;-73
2023/04/08 00:25:47;;;;;;;1.50;1.40;;;;;;;5.69;68.86;97697.97;5043678;28;20040;-73
2023/04/08 00:28:15;;;;;;;1.25;1.15;;;;;;;5.70;69.10;97694.34;5046445;28;20041;-73
2023/04/08 00:30:42;;;;;;;1.42;1.33;;;;;;;5.69;69.46;97693.50;5045176;28;20063;-73
2023/04/08 00:33:11;;;;;;;1.95;1.85;;;;;;;5.76;69.85;97685.72;5044648;28;20463;-73
2023/04/08 00:35:39;;;;;;;1.77;1.35;;;;;;;5.78;68.86;97687.22;5041434;28;20077;-73
2023/04/08 00:38:07;;;;;;;1.30;1.20;;;;;;;5.78;70.21;97687.22;5044063;28;20435;-73
2023/04/08 00:40:35;;;;;;;1.23;1.13;;;;;;;5.60;70.81;97691.81;5042510;28;20050;-73
2023/04/08 00:43:02;;;;;;;1.30;1.20;;;;;;;5.64;70.67;97701.09;5044149;28;20044;-73
2023/04/08 00:45:30;;;;;;;1.10;1.00;;;;;;;5.71;70.69;97701.28;5044460;28;20407;-73
2023/04/08 00:47:57;;;;;;;1.20;1.10;;;;;;;5.66;71.79;97695.63;5045707;28;20569;-73
2023/04/08 00:50:26;;;;;;;1.45;1.35;;;;;;;5.43;73.40;97698.88;5044319;28;20079;-72
2023/04/08 00:52:54;;;;;;;1.42;1.33;;;;;;;5.49;73.08;97692.94;5043849;28;20036;-73
2023/04/08 00:55:21;;;;;;;1.30;1.20;;;;;;;5.50;73.07;97704.38;5044693;28;20345;-73
2023/04/08 00:57:49;;;;;;;1.42;1.33;;;;;;;5.51;75.26;97696.25;5043867;28;20487;-73
2023/04/08 01:00:17;;;;;;;1.40;1.30;;;;;;;5.62;73.36;97699.56;5043737;28;20144;-73
2023/04/08 01:02:47;;;;;;;1.10;1.00;;;;;;;5.61;74.85;97692.63;5041364;28;20041;-73
2023/04/08 01:05:20;;;;;;;1.13;1.02;;;;;;;5.61;75.05;97706.69;5043763;28;20057;-73
2023/04/08 01:07:50;;;;;;;1.55;1.45;;;;;;;5.63;74.64;97701.25;5043555;28;20040;-73
2023/04/08 01:10:20;;;;;;;1.77;1.30;;;;;;;5.62;75.29;97699.56;5045544;28;20510;-73
2023/04/08 01:12:59;;;;;;;1.10;1.00;;;;;;;5.56;76.53;97705.53;5044934;28;20063;-73
2023/04/08 01:15:28;;;;;;;1.40;1.30;;;;;;;5.51;76.16;97706.00;5046510;28;20052;-73
2023/04/08 01:17:59;;;;;;;1.40;1.30;;;;;;;5.52;76.68;97697.06;5040118;28;20053;-73
2023/04/08 01:20:27;;;;;;;1.52;1.30;;;;;;;5.55;76.17;97707.34;5047107;28;20143;-73
2023/04/08 01:23:05;;;;;;;1.60;1.42;;;;;;;5.51;77.16;97695.41;5041203;28;20103;-72
2023/04/08 01:25:35;;;;;;;1.30;1.20;;;;;;;5.43;78.26;97700.69;5045989;28;20042;-73
2023/04/08 01:28:07;;;;;;;1.42;1.33;;;;;;;5.42;77.82;97704.31;5046445;28;20057;-73
2023/04/08 01:30:35;;;;;;;1.75;1.30;;;;;;;5.35;78.44;97703.31;5044480;28;20049;-73
2023/04/08 01:33:03;;;;;;;1.45;1.35;;;;;;;5.30;78.52;97705.56;5045247;28;20439;-73
2023/04/08 01:35:31;;;;;;;1.67;1.40;;;;;;;5.21;80.05;97691.50;5041355;28;20049;-73
2023/04/08 01:38:00;;;;;;;1.40;1.30;;;;;;;5.27;79.27;97696.16;5044103;28;20045;-73
2023/04/08 01:40:27;;;;;;;1.80;1.70;;;;;;;5.27;79.63;97692.69;5042826;28;20041;-73
2023/04/08 01:42:56;;;;;;;1.58;1.48;;;;;;;5.27;79.41;97697.97;5043103;28;20040;-72
2023/04/08 01:45:26;;;;;;;1.55;1.45;;;;;;;5.27;80.13;97701.47;5042856;28;20049;-73
2023/04/08 01:47:55;;;;;;;1.30;1.20;;;;;;;5.27;80.85;97695.34;5049543;28;20052;-73
2023/04/08 01:50:23;;;;;;;1.60;1.50;;;;;;;5.30;79.41;97693.19;5044637;28;20071;-73
2023/04/08 01:52:52;;;;;;;1.58;1.48;;;;;;;5.32;80.19;97693.84;5035455;28;20037;-73
2023/04/08 01:55:20;;;;;;;2.03;1.92;;;;;;;5.19;81.84;97696.13;5042492;28;20068;-73
2023/04/08 01:57:50;;;;;;;1.63;1.35;;;;;;;5.22;81.70;97687.84;5042283;28;20045;-73
2023/04/08 02:00:19;;;;;;;1.80;1.70;;;;;;;5.17;81.90;97700.75;5042615;28;20530;-72
2023/04/08 02:02:49;;;;;;;1.60;1.50;;;;;;;5.23;81.42;97693.97;5043366;28;20041;-73
2023/04/08 02:05:18;;;;;;;1.70;1.60;;;;;;;5.26;81.15;97693.66;5043621;28;20068;-73
2023/04/08 02:07:47;;;;;;;1.70;1.48;;;;;;;5.20;82.33;97699.56;5039497;28;20042;-73
2023/04/08 02:10:14;;;;;;;1.80;1.70;;;;;;;5.18;82.05;97696.28;5043834;28;20045;-73
2023/04/08 02:12:43;;;;;;;1.70;1.60;;;;;;;5.16;82.11;97699.09;5040594;28;20060;-73
2023/04/08 02:15:11;;;;;;;1.75;1.65;;;;;;;5.21;82.37;97698.59;5044603;28;20048;-73
2023/04/08 02:17:44;;;;;;;1.85;1.75;;;;;;;5.15;82.42;97700.91;5040354;28;20044;-73
2023/04/08 02:20:16;;;;;;;1.80;1.70;;;;;;;5.09;83.42;97696.22;5045401;28;20110;-74
2023/04/08 02:22:55;;;;;;;1.73;1.63;;;;;;;5.03;82.97;97701.31;5040661;28;20046;-73
2023/04/08 02:25:23;;;;;;;;;;;;;;;5.07;83.93;97702.69;5038689;28;20107;-73
2023/04/08 02:27:52;;;;;;;1.98;1.73;;;;;;;5.12;83.80;97701.22;5030465;28;20311;-73
2023/04/08 02:30:20;;;;;;;1.50;1.40;;;;;;;5.15;84.24;97706.19;5043157;28;20049;-73
2023/04/08 02:32:48;;;;;;;1.67;1.58;;;;;;;5.15;84.53;97702.72;5031285;28;20045;-73
2023/04/08 02:35:18;;;;;;;1.60;1.50;;;;;;;5.16;85.42;97707.84;5043682;28;20069;-73
2023/04/08 02:37:47;;;;;;;1.20;1.10;;;;;;;5.15;84.59;97697.44;5045063;28;20510;-73
2023/04/08 02:40:25;;;;;;;1.50;1.40;;;;;;;5.20;84.59;97697.75;5041049;28;20507;-73
2023/04/08 02:42:53;;;;;;;1.23;1.13;;;;;;;5.19;85.66;97698.78;5044119;28;20041;-72
2023/04/08 02:45:21;;;;;;;1.20;1.10;;;;;;;5.16;85.23;97694.63;5050028;28;20523;-72
2023/04/08 02:47:49;;;;;;;1.33;1.23;;;;;;;5.20;85.51;97702.22;5042583;28;20071;-72
2023/04/08 02:50:18;;;;;;;1.23;1.13;;;;;;;5.21;85.28;97702.06;5045365;28;20053;-72
2023/04/08 02:52:46;;;;;;;1.10;1.00;;;;;;;5.19;85.09;97700.59;5066127;28;20041;-72
2023/04/08 02:55:13;;;;;;;0.90;0.90;;;;;;;5.19;85.68;97708.53;5049906;28;20075;-72
2023/04/08 02:57:42;;;;;;;1.08;1.08;;;;;;;5.19;85.11;97701.44;5048244;28;20580;-73
2023/04/08 03:00:10;;;;;;;0.90;0.90;;;;;;;5.20;84.63;97700.41;5052199;28;20041;-73
2023/04/08 03:02:38;;;;;;;1.00;0.90;;;;;;;5.23;84.70;97699.28;5052701;28;20033;-73
2023/04/08 03:05:06;;;;;;;1.20;1.10;;;;;;;5.20;84.58;97703.06;5052144;28;20111;-72
2023/04/08 03:07:35;;;;;;;0.80;0.80;;;;;;;5.17;85.66;97703.41;5049095;28;20045;-72
2023/04/08 03:10:03;;;;;;;0.80;0.80;;;;;;;5.20;84.99;97700.41;5050806;28;20103;-73
2023/04/08 03:12:31;;;;;;;0.82;0.82;;;;;;;5.23;84.81;97702.75;5051182;28;20040;-73
2023/04/08 03:14:59;;;;;;;0.90;0.90;;;;;;;5.09;85.98;97704.16;5050025;28;20041;-72
2023/04/08 03:17:27;;;;;;;1.17;1.15;;;;;;;5.00;86.94;97705.09;5047228;28;20080;-73
2023/04/08 03:19:55;;;;;;;0.85;0.85;;;;;;;5.08;85.82;97699.88;5048637;28;20037;-72
2023/04/08 03:22:23;;;;;;;1.13;1.02;;;;;;;5.13;86.07;97702.03;5048545;28;20099;-72
2023/04/08 03:24:52;;;;;;;0.80;0.80;;;;;;;5.10;86.08;97703.19;5047340;28;20404;-73
2023/04/08 03:27:19;;;;;;;0.80;0.80;;;;;;;5.05;85.81;97697.53;5041366;28;20095;-73
2023/04/08 03:29:47;;;;;;;0.98;0.98;;;;;;;4.99;86.11;97706.09;5042680;28;20056;-73
2023/04/08 03:32:15;;;;;;;0.93;0.93;;;;;;;4.82;87.36;97704.34;5048139;28;20072;-73
2023/04/08 03:34:42;;;;;;;1.25;1.05;;;;;;;4.90;86.27;97708.84;5044834;28;20041;-73
2023/04/08 03:37:10;;;;;;;1.10;1.10;;;;;;;4.98;86.20;97707.09;5049337;28;20069;-73
2023/04/08 03:39:38;;;;;;;0.90;0.90;;;;;;;5.01;86.00;97704.13;5046937;28;20053;-74
2023/04/08 03:42:06;;;;;;;0.70;0.70;;;;;;;4.89;86.78;97694.78;5050315;28;20045;-74
2023/04/08 03:44:34;;;;;;;0.80;0.80;;;;;;;4.91;86.57;97705.22;5045321;28;20114;-73
2023/04/08 03:47:01;;;;;;;0.70;0.70;;;;;;;4.88;86.73;97708.19;5048928;28;20049;-74
2023/04/08 03:49:29;;;;;;;0.70;0.70;;;;;;;4.84;87.53;97707.66;5046564;28;20067;-74
2023/04/08 03:51:56;;;;;;;0.80;0.80;;;;;;;4.86;87.13;97708.34;5043394;28;20119;-74
2023/04/08 03:54:24;;;;;;;0.90;0.90;;;;;;;4.87;87.54;97715.31;5050557;28;20068;-73
2023/04/08 03:56:51;;;;;;;0.70;0.70;;;;;;;4.94;87.00;97716.31;5043852;28;20041;-73
2023/04/08 03:59:20;;;;;;;0.82;0.82;;;;;;;4.88;87.61;97716.94;5043686;28;20054;-74
2023/04/08 04:01:50;;;;;;;0.90;0.90;;;;;;;4.89;87.04;97715.13;5037518;28;20041;-74
2023/04/08 04:04:17;;;;;;;1.00;1.00;;;;;;;4.95;86.54;97719.81;5038805;28;20052;-74
2023/04/08 04:06:45;;;;;;;0.90;0.90;;;;;;;4.90;87.19;97722.91;5048809;28;20099;-74
2023/04/08 04:09:14;;;;;;;0.68;0.68;;;;;;;4.93;86.95;97732.34;5042143;28;20099;-74
2023/04/08 04:11:41;;;;;;;0.80;0.80;;;;;;;4.94;87.42;97726.91;5049682;28;20040;-74
2023/04/08 04:14:09;;;;;;;0.80;0.80;;;;;;;4.98;86.89;97724.78;5041132;28;20087;-73
2023/04/08 04:16:37;;;;;;;0.80;0.80;;;;;;;5.01;87.09;97735.88;5042669;28;20037;-74
2023/04/08 04:19:05;;;;;;;0.80;0.80;;;;;;;5.00;87.31;97730.72;5043328;28;20057;-74
2023/04/08 04:21:33;;;;;;;0.70;0.70;;;;;;;4.90;88.01;97733.47;5042504;28;20048;-74
2023/04/08 04:24:00;;;;;;;0.75;0.75;;;;;;;4.92;87.90;97733.31;5045832;28;20049;-73
2023/04/08 04:26:28;;;;;;;0.80;0.80;;;;;;;4.90;88.13;97743.22;5041297;28;20052;-74
2023/04/08 04:28:55;;;;;;;0.80;0.80;;;;;;;4.85;88.76;97750.81;5047513;28;20076;-74
2023/04/08 04:31:25;;;;;;;0.70;0.70;;;;;;;4.90;88.45;97751.16;5040888;28;20045;-73
2023/04/08 04:33:54;;;;;;;0.80;0.80;;;;;;;4.91;88.88;97745.72;5044063;28;20079;-74
2023/04/08 04:36:21;;;;;;;0.93;0.93;;;;;;;4.95;88.60;97747.06;5041620;28;20091;-74
2023/04/08 04:38:49;;;;;;;0.90;0.90;;;;;;;4.98;88.62;97740.66;5037336;28;20045;-74
2023/04/08 04:41:17;;;;;;;0.70;0.70;;;;;;;4.92;89.27;97743.91;5044002;28;20044;-74
2023/04/08 04:43:45;;;;;;;0.90;0.90;;;;;;;4.99;88.50;97745.75;5044881;28;20037;-73
2023/04/08 04:46:12;;;;;;;0.80;0.65;;;;;;;5.03;88.83;97746.28;5047249;28;20049;-73
2023/04/08 04:48:40;;;;;;;0.98;0.98;;;;;;;5.08;88.83;97755.44;5045269;28;20045;-73
2023/04/08 04:51:09;;;;;;;1.13;1.13;;;;;;;5.08;89.17;97758.06;5046197;28;20479;-74
2023/04/08 04:53:36;;;;;;;1.02;0.93;;;;;;;5.04;89.32;97754.06;5043191;28;20079;-73
2023/04/08 04:56:04;;;;;;;0.70;0.70;;;;;;;5.03;89.64;97762.16;5043899;28;20111;-73
2023/04/08 04:58:31;;;;;;;0.80;0.70;;;;;;;5.03;89.38;97770.09;5041051;28;20496;-73
2023/04/08 05:00:59;;;;;;;0.80;0.80;;;;;;;5.02;89.42;97763.13;5043234;28;20044;-73
2023/04/08 05:03:26;;;;;;;0.70;0.60;;;;;;;5.02;89.49;97771.06;5043359;28;20122;-73
2023/04/08 05:05:54;;;;;;;1.02;0.93;;;;;;;5.03;90.19;97763.00;5042971;28;20127;-73
2023/04/08 05:08:23;;;;;;;1.10;1.00;;;;;;;5.03;89.87;97759.50;5044172;28;20436;-73
2023/04/08 05:10:54;;;;;;;0.95;0.73;;;;;;;5.01;90.16;97759.66;5043359;28;20041;-73
2023/04/08 05:13:22;;;;;;;0.63;0.63;;;;;;;5.06;90.11;97780.38;5043911;28;20037;-73
2023/04/08 05:15:50;;;;;;;0.90;0.90;;;;;;;5.06;90.55;97775.09;5039027;28;20389;-73
2023/04/08 05:18:17;;;;;;;0.75;0.73;;;;;;;5.09;89.69;97777.41;5045384;28;20091;-73
2023/04/08 05:20:45;;;;;;;0.80;0.80;;;;;;;4.93;91.25;97782.59;5041487;28;20042;-74
2023/04/08 05:23:13;;;;;;;0.60;0.60;;;;;;;4.64;92.67;97774.94;5046868;28;20048;-73
2023/04/08 05:25:41;;;;;;;0.65;0.65;;;;;;;4.83;91.78;97776.56;5042275;28;20045;-73
2023/04/08 05:28:09;;;;;;;0.70;0.70;;;;;;;4.98;90.82;97773.22;5046845;28;20094;-74
2023/04/08 05:30:37;;;;;;;0.63;0.63;;;;;;;4.92;91.08;97779.09;5043181;28;20049;-73
2023/04/08 05:33:04;;;;;;;0.70;0.70;;;;;;;4.97;90.86;97779.50;5040731;28;20099;-74
2023/04/08 05:35:32;;;;;;;0.50;0.50;;;;;;;4.96;91.16;97785.75;5046202;28;20127;-73
2023/04/08 05:37:59;;;;;;;0.50;0.50;;;;;;;4.97;90.88;97789.25;5041062;28;20041;-73
2023/04/08 05:40:27;;;;;;;0.60;0.60;;;;;;;4.97;91.24;97795.38;5053353;28;20102;-73
2023/04/08 05:42:56;;;;;;;0.70;0.70;;;;;;;4.97;90.70;97787.44;5046905;28;20045;-73
2023/04/08 05:45:23;;;;;;;0.52;0.52;;;;;;;4.99;90.59;97789.88;5050733;28;20041;-73
2023/04/08 05:47:51;;;;;;;0.50;0.50;;;;;;;4.95;90.50;97781.47;5042030;28;20049;-73
2023/04/08 05:50:18;;;;;;;0.60;0.60;;;;;;;4.97;90.21;97786.59;5042008;28;20095;-73
2023/04/08 05:52:46;;;;;;;0.60;0.60;;;;;;;5.02;90.02;97792.22;5045271;28;20120;-73
2023/04/08 05:55:14;;;;;;;0.57;0.57;;;;;;;5.11;89.52;97793.94;5045495;28;20493;-73
2023/04/08 05:57:41;;;;;;;0.63;0.50;;;;;;;5.07;89.72;97797.91;5044206;28;20049;-73
2023/04/08 06:00:11;;;;;;;1.05;1.05;;;;;;;5.08;89.87;97792.47;5044975;28;20423;-73
2023/04/08 06:02:38;;;;;;;0.60;0.60;;;;;;;5.08;89.28;97791.63;5045717;28;20053;-74
2023/04/08 06:05:07;;;;;;;0.85;0.85;;;;;;;5.02;89.60;97797.53;5045781;28;20489;-73
2023/04/08 06:07:34;;;;;;;0.40;0.40;;;;;;;5.01;89.69;97806.44;5046436;28;20099;-73
2023/04/08 06:10:02;;;;;;;0.43;0.43;;;;;;;4.98;90.73;97812.91;5049947;28;20044;-73
2023/04/08 06:12:30;;;;;;;0.57;0.57;;;;;;;5.11;89.88;97812.47;5049271;28;20088;-74
2023/04/08 06:14:57;;;;;;;0.50;0.50;;;;;;;5.09;90.18;97812.63;5049341;28;20045;-73
2023/04/08 06:17:26;;;;;;;0.43;0.43;;;;;;;5.15;90.66;97806.72;5046301;28;20051;-74
2023/04/08 06:19:54;;;;;;;0.50;0.50;;;;;;;5.14;90.10;97813.00;5049511;28;20045;-73
2023/04/08 06:22:21;;;;;;;0.50;0.50;;;;;;;5.10;90.51;97811.63;5047497;28;20052;-73
2023/04/08 06:24:49;;;;;;;0.57;0.57;;;;;;;4.94;91.37;97810.69;5037678;28;20041;-73
2023/04/08 06:27:17;;;;;;;0.30;0.30;;;;;;;4.92;92.07;97815.31;5047863;28;20098;-73
2023/04/08 06:29:44;;;;;;;0.50;0.50;;;;;;;4.93;92.60;97824.91;5048461;28;20041;-74
2023/04/08 06:32:12;;;;;;;0.50;0.50;;;;;;;4.99;92.11;97819.81;5048190;28;20045;-73
2023/04/08 06:34:41;;;;;;;0.50;0.40;;;;;;;4.98;91.85;97818.19;5045922;28;20080;-73
2023/04/08 06:37:08;;;;;;;0.50;0.50;;;;;;;4.86;92.65;97822.06;5048131;28;20379;-73
2023/04/08 06:39:36;;;;;;;1.20;1.20;;;;;;;4.93;92.39;97827.53;5046049;28;20395;-73
2023/04/08 06:42:03;;;;;;;0.70;0.60;;;;;;;4.86;92.76;97823.88;5042451;28;20053;-73
2023/04/08 06:44:44;;;;;;;0.50;0.50;;;;;;;4.97;92.43;97831.56;5039434;28;20041;-73
2023/04/08 06:47:11;;;;;;;0.52;0.52;;;;;;;4.93;92.43;97835.47;5041173;28;20416;-73
2023/04/08 06:49:39;;;;;;;0.57;0.57;;;;;;;4.93;92.83;97833.66;5047095;28;20480;-74
2023/04/08 06:52:07;;;;;;;0.70;0.70;;;;;;;4.95;92.72;97838.81;5044082;28;20046;-73
2023/04/08 06:54:35;;;;;;;0.60;0.60;;;;;;;4.92;92.54;97837.28;5037642;28;20041;-73
2023/04/08 06:57:03;;;;;;;1.00;1.00;;;;;;;4.97;92.78;97834.19;5046769;28;20422;-73
2023/04/08 06:59:30;;;;;;;0.43;0.38;;;;;;;5.00;92.03;97839.16;5036284;28;20554;-74
2023/04/08 07:01:58;;;;;;;0.50;0.50;;;;;;;4.94;92.92;97835.34;5043529;28;20045;-72
2023/04/08 07:04:25;;;;;;;0.68;0.68;;;;;;;4.99;92.66;97840.13;5043540;28;20456;-72
2023/04/08 07:06:53;;;;;;;0.60;0.60;;;;;;;5.09;92.54;97831.13;5049542;28;20061;-72
2023/04/08 07:09:22;;;;;;;0.50;0.50;;;;;;;5.16;92.56;97836.66;5040239;28;20037;-72
2023/04/08 07:11:50;;;;;;;0.45;0.45;;;;;;;5.20;92.66;97831.84;5036674;28;20099;-72
2023/04/08 07:14:18;;;;;;;0.40;0.40;;;;;;;5.26;92.35;97832.09;5037404;28;20511;-72
2023/04/08 07:16:45;;;;;;;0.20;0.20;;;;;;;5.13;91.77;97834.31;5044974;28;20063;-73
2023/04/08 07:19:13;;;;;;;0.50;0.50;;;;;;;5.18;92.90;97841.78;5042868;28;20049;-72
2023/04/08 07:21:41;;;;;;;0.47;0.47;;;;;;;5.27;92.35;97848.81;5044165;28;20467;-73
2023/04/08 07:24:08;;;;;;;0.52;0.52;;;;;;;5.33;91.59;97846.34;5045555;28;20041;-72
2023/04/08 07:26:38;;;;;;;0.40;0.40;;;;;;;5.32;90.96;97849.16;5042841;28;20045;-72
2023/04/08 07:29:05;;;;;;;0.43;0.43;;;;;;;5.20;91.87;97853.84;5046974;28;20107;-72
2023/04/08 07:31:33;;;;;;;0.60;0.60;;;;;;;5.14;92.14;97854.50;5043148;28;20111;-72
2023/04/08 07:34:00;;;;;;;0.32;0.32;;;;;;;5.16;93.30;97850.72;5044211;28;20056;-72
2023/04/08 07:36:28;;;;;;;0.40;0.40;;;;;;;5.23;93.10;97852.72;5042201;28;20045;-75
2023/04/08 07:38:55;;;;;;;0.52;0.52;;;;;;;5.23;92.90;97850.91;5045200;28;20045;-73
2023/04/08 07:41:23;;;;;;;0.60;0.57;;;;;;;5.29;91.89;97857.41;5043455;28;20037;-73
2023/04/08 07:43:52;;;;;;;0.40;0.40;;;;;;;5.30;91.50;97857.25;5044889;28;20073;-73
2023/04/08 07:46:20;;;;;;;0.40;0.40;;;;;;;5.36;91.94;97859.28;5044185;28;20103;-72
2023/04/08 07:48:47;;;;;;;0.60;0.60;;;;;;;5.43;91.72;97865.59;5039223;28;20041;-72
2023/04/08 07:51:15;;;;;;;0.88;0.88;;;;;;;5.33;90.85;97874.63;5044583;28;20416;-72
2023/04/08 07:53:46;;;;;;;0.80;0.80;;;;;;;5.36;91.81;97872.50;5040604;28;20401;-72
2023/04/08 07:56:17;;;;;;;1.23;0.40;;;;;;;5.40;91.05;97876.50;5045127;28;20037;-73
2023/04/08 07:58:44;;;;;;;0.57;0.57;;;;;;;5.42;91.39;97885.13;5041289;28;20080;-73
2023/04/08 08:01:18;;;;;;;0.43;0.43;;;;;;;5.35;91.62;97885.91;5045814;28;20045;-73
2023/04/08 08:03:47;;;;;;;0.50;0.50;;;;;;;5.45;91.03;97886.63;5040897;28;20049;-73
2023/04/08 08:06:15;;;;;;;0.38;0.38;;;;;;;5.40;91.02;97889.72;5046440;28;20045;-73
2023/04/08 08:08:42;;;;;;;0.43;0.43;;;;;;;5.41;91.63;97885.25;5041597;28;20103;-73
2023/04/08 08:11:10;;;;;;;0.40;0.40;;;;;;;5.37;92.22;97892.69;5046743;28;20064;-73
2023/04/08 08:13:38;;;;;;;0.50;0.40;;;;;;;5.23;91.81;97892.41;5041900;28;20447;-72
2023/04/08 08:16:07;;;;;;;0.35;0.35;;;;;;;5.33;91.97;97893.16;5041110;28;20042;-73
2023/04/08 08:18:38;;;;;;;0.50;0.50;;;;;;;5.24;93.00;97894.06;5046534;28;20049;-73
2023/04/08 08:21:07;;;;;;;0.40;0.40;;;;;;;5.30;92.52;97899.56;5040953;28;20030;-73
2023/04/08 08:23:35;;;;;;;0.60;0.60;;;;;;;5.38;92.56;97899.66;5047244;28;20048;-73
2023/04/08 08:26:03;;;;;;;0.60;0.60;;;;;;;5.27;92.92;97894.63;5040439;28;20288;-72
2023/04/08 08:28:31;;;;;;;0.40;0.40;;;;;;;5.37;92.58;97905.09;5048277;28;20099;-72
2023/04/08 08:30:59;;;;;;;0.55;0.55;;;;;;;5.44;93.12;97904.31;5043527;28;20508;-71
2023/04/08 08:33:26;;;;;;;0.50;0.50;;;;;;;5.46;93.12;97912.94;5042666;28;20041;-71
2023/04/08 08:35:56;;;;;;;0.50;0.50;;;;;;;5.54;92.71;97920.09;5045563;28;20120;-72
2023/04/08 08:38:24;;;;;;;0.80;0.80;;;;;;;5.62;92.04;97922.81;5040463;28;20449;-72
2023/04/08 08:40:55;;;;;;;0.55;0.50;;;;;;;5.57;91.39;97924.25;5046710;28;20034;-72
2023/04/08 08:43:22;;;;;;;0.30;0.30;;;;;;;5.31;91.83;97911.81;5040212;28;20041;-72
2023/04/08 08:45:50;;;;;;;0.30;0.30;;;;;;;5.38;92.40;97910.25;5047865;28;20042;-72
2023/04/08 08:48:18;;;;;;;0.50;0.50;;;;;;;5.31;93.18;97922.41;5039993;28;20485;-71
2023/04/08 08:50:45;;;;;;;0.52;0.50;;;;;;;5.38;93.34;97925.28;5044817;28;20049;-74
2023/04/08 08:53:14;;;;;;;0.70;0.70;;;;;;;5.44;92.54;97922.03;5037832;28;20076;-74
2023/04/08 08:55:42;;;;;;;0.50;0.50;;;;;;;5.45;92.23;97918.38;5042968;28;20048;-72
2023/04/08 08:58:30;;;;;;;0.57;0.57;;;;;;;5.46;93.03;97920.06;5042653;28;20131;-72
2023/04/08 09:00:59;;;;;;;0.50;0.50;;;;;;;5.51;92.27;97928.34;5043262;28;20049;-72
2023/04/08 09:03:28;;;;;;;0.57;0.57;;;;;;;5.51;93.02;97928.34;5042860;28;20048;-72
2023/04/08 09:05:57;;;;;;;0.40;0.40;;;;;;;5.49;93.50;97925.88;5035935;28;20041;-74
2023/04/08 09:08:30;;;;;;;0.40;0.40;;;;;;;5.58;93.23;97934.72;5043099;28;20047;-72
2023/04/08 09:11:11;;;;;;;0.55;0.55;;;;;;;5.56;92.50;97930.53;5044441;28;20045;-72
2023/04/08 09:13:39;;;;;;;0.50;0.43;;;;;;;5.55;93.03;97935.00;5035875;28;20061;-72
2023/04/08 09:16:08;;;;;;;0.50;0.50;;;;;;;5.60;93.00;97931.91;5040689;28;20091;-72
2023/04/08 09:18:36;;;;;;;0.60;0.60;;;;;;;5.50;93.27;97938.09;5047816;28;20049;-72
2023/04/08 09:21:05;;;;;;;0.60;0.60;;;;;;;5.56;93.14;97931.38;5042725;28;20045;-72
2023/04/08 09:23:41;;;;;;;0.50;0.50;;;;;;;5.62;92.84;97935.22;5047486;28;20049;-71
2023/04/08 09:26:10;;;;;;;0.60;0.60;;;;;;;5.58;93.43;97936.53;5040528;28;20046;-72
2023/04/08 09:28:39;;;;;;;0.65;0.65;;;;;;;5.54;93.47;97936.81;5051007;28;20045;-72
2023/04/08 09:31:20;;;;;;;0.50;0.50;;;;;;;5.65;93.36;97945.50;5040244;28;20052;-72
2023/04/08 09:33:48;;;;;;;0.43;0.43;;;;;;;5.67;93.29;97947.00;5027512;28;20094;-72
2023/04/08 09:36:17;;;;;;;0.73;0.73;;;;;;;5.61;93.77;97952.06;5041782;28;20052;-72
2023/04/08 09:38:48;;;;;;;0.60;0.60;;;;;;;5.68;94.13;97953.13;5042911;28;20114;-72
2023/04/08 09:41:16;;;;;;;0.55;0.55;;;;;;;5.70;94.50;97957.31;5042284;28;20451;-71
2023/04/08 09:43:48;;;;;;;1.95;1.85;;;;;;;5.77;94.44;97966.28;5042326;28;20443;-72
2023/04/08 09:46:18;;;;;;;0.93;0.93;;;;;;;5.87;93.24;97960.88;5045660;28;20041;-72
2023/04/08 09:48:51;;;;;;;0.82;0.82;;;;;;;5.87;93.44;97966.16;5043759;28;20071;-72
2023/04/08 09:51:21;;;;;;;0.50;0.50;;;;;;;5.66;93.74;97963.88;5043411;28;20052;-72
2023/04/08 09:53:56;;;;;;;0.65;0.65;;;;;;;5.73;93.77;97964.09;5041337;28;20079;-72
2023/04/08 09:56:24;;;;;;;0.80;0.80;;;;;;;5.78;94.05;97972.41;5043158;28;20041;-72
2023/04/08 09:58:55;;;;;;;0.50;0.50;;;;;;;5.80;93.13;97970.44;5040162;28;20107;-71
2023/04/08 10:01:28;;;;;;;0.60;0.60;;;;;;;5.73;93.48;97975.50;5045823;28;20057;-73
2023/04/08 10:03:57;;;;;;;0.63;0.63;;;;;;;5.75;93.72;97975.34;5039874;28;20108;-73
2023/04/08 10:06:28;;;;;;;0.70;0.60;;;;;;;5.85;93.51;97973.44;5046216;28;20037;-74
2023/04/08 10:08:57;;;;;;;0.90;0.90;;;;;;;5.92;93.79;97973.69;5040927;28;20522;-72
2023/04/08 10:11:25;;;;;;;0.60;0.60;;;;;;;6.00;94.39;97974.56;5047645;28;20049;-73
2023/04/08 10:13:53;;;;;;;3.90;3.63;;;;;;;6.07;94.30;97982.72;5042099;28;20052;-74
2023/04/08 10:16:23;;;;;;;4.15;3.85;;;;;;;6.14;94.08;97979.28;5039043;28;20041;-72
2023/04/08 10:18:54;;;;;;;0.90;0.90;;;;;;;6.14;92.87;97973.13;5034226;28;20041;-72
2023/04/08 10:21:32;;;;;;;0.73;0.73;;;;;;;6.21;92.95;97977.69;5040211;28;20400;-72
2023/04/08 10:24:05;;;;;;;0.60;0.60;;;;;;;6.19;93.29;97982.28;5034800;28;20078;-74
2023/04/08 10:26:35;;;;;;;0.68;0.68;;;;;;;6.16;93.33;97972.00;5040621;28;20104;-72
2023/04/08 10:29:31;;;;;;;0.75;0.75;;;;;;;6.21;93.61;97976.84;5045394;28;20050;-73
2023/04/08 10:32:00;;;;;;;1.00;1.00;;;;;;;6.12;92.63;97967.19;5032251;28;20439;-73
2023/04/08 10:34:27;;;;;;;0.70;0.70;;;;;;;6.10;93.19;97975.28;5040166;28;20037;-73
2023/04/08 10:36:57;;;;;;;0.75;0.75;;;;;;;6.01;93.19;97975.41;5042453;28;20099;-72
2023/04/08 10:39:27;;;;;;;0.70;0.70;;;;;;;6.05;93.30;97980.22;5041069;28;20049;-73
2023/04/08 10:41:55;;;;;;;0.77;0.77;;;;;;;6.12;93.20;97978.63;5042707;28;20049;-75
2023/04/08 10:44:25;;;;;;;0.80;0.80;;;;;;;6.16;94.08;97976.47;5041412;28;20044;-71
2023/04/08 10:46:53;;;;;;;0.50;0.50;;;;;;;6.22;93.31;97982.00;5042124;28;20069;-72
2023/04/08 10:49:21;;;;;;;0.70;0.70;;;;;;;6.15;93.99;97974.81;5042681;28;20049;-73
2023/04/08 10:51:49;;;;;;;0.70;0.70;;;;;;;6.24;94.09;97976.50;5043392;28;20046;-72
2023/04/08 10:54:18;;;;;;;0.70;0.70;;;;;;;6.30;93.86;97983.00;5048512;28;20408;-73
2023/04/08 10:56:48;;;;;;;0.68;0.68;;;;;;;6.36;93.89;97977.06;5043611;28;20042;-74
2023/04/08 10:59:18;;;;;;;1.30;0.90;;;;;;;6.28;92.76;97988.47;5045054;28;20500;-73
2023/04/08 11:01:46;;;;;;;0.63;0.63;;;;;;;6.35;93.40;97976.22;5050275;28;20115;-73
2023/04/08 11:04:16;;;;;;;0.80;0.80;;;;;;;6.49;91.84;97978.28;5045552;28;20042;-72
2023/04/08 11:06:45;;;;;;;0.98;0.98;;;;;;;6.45;92.38;97976.94;5050675;28;20050;-72
2023/04/08 11:09:14;;;;;;;3.95;3.65;;;;;;;6.54;94.26;97980.47;5043117;28;20374;-73
2023/04/08 11:11:42;;;;;;;2.42;2.30;;;;;;;6.63;92.78;97976.88;5050962;28;20475;-72
2023/04/08 11:14:11;;;;;;;1.33;1.23;;;;;;;6.68;92.24;97981.69;5042071;28;20041;-72
2023/04/08 11:16:39;;;;;;;1.63;1.52;;;;;;;6.77;92.24;97986.84;5043685;28;20111;-72
2023/04/08 11:19:07;;;;;;;1.42;1.33;;;;;;;6.77;91.34;97976.22;5045928;28;20049;-72
2023/04/08 11:21:36;;;;;;;1.42;1.33;;;;;;;6.71;90.24;97968.09;5048655;28;20076;-72
2023/04/08 11:24:10;;;;;;;1.60;1.50;;;;;;;6.66;90.09;97975.69;5050835;28;20492;-72
2023/04/08 11:26:38;;;;;;;1.60;1.50;;;;;;;6.78;91.29;97961.97;5042574;28;20049;-73
2023/04/08 11:29:07;;;;;;;1.60;1.50;;;;;;;7.09;91.09;97972.00;5042375;28;20524;-72
2023/04/08 11:31:36;;;;;;;1.80;1.70;;;;;;;7.33;89.27;97980.00;5043264;28;20047;-72
2023/04/08 11:34:05;;;;;;;1.92;1.83;;;;;;;7.53;88.26;97967.22;5045557;28;20107;-72
2023/04/08 11:36:34;;;;;;;1.75;1.65;;;;;;;7.79;87.17;97964.41;5040725;28;20496;-72
2023/04/08 11:39:06;;;;;;;1.88;1.77;;;;;;;7.68;86.14;97966.38;5045635;28;20063;-72
2023/04/08 11:41:39;;;;;;;1.95;1.85;;;;;;;7.73;85.86;97958.75;5043645;28;20312;-73
2023/04/08 11:44:07;;;;;;;1.90;1.80;;;;;;;7.79;85.12;97972.38;5044864;28;20063;-72
2023/04/08 11:46:36;;;;;;;2.10;2.00;;;;;;;7.78;85.54;97976.03;5043892;28;20049;-73
2023/04/08 11:49:06;;;;;;;2.08;1.98;;;;;;;7.79;86.49;97967.06;5045094;28;20099;-73